Time;durP1;ratioP1;P1;durP2;ratioP2;P2;SDS_P1;SDS_P2;PMS_P1;PMS_P2;Temp;Humidity;BMP_temperature;BMP_pressure;BME280_temperature;BME280_humidity;BME280_pressure;Samples;Min_cycle;Max_cycle;Signal;HPM_P1;HPM_P2
2022/09/28 00:00:52;;;;;;;2.53;0.90;;;8.40;99.90;;;;;;4971355;28;20035;-74
2022/09/28 00:03:18;;;;;;;3.70;0.90;;;8.40;99.90;;;;;;4971156;28;20418;-74
2022/09/28 00:05:43;;;;;;;1.50;1.00;;;8.40;99.90;;;;;;4972934;28;20062;-74
2022/09/28 00:08:09;;;;;;;3.00;0.97;;;8.40;99.90;;;;;;4975524;28;20109;-75
2022/09/28 00:10:34;;;;;;;1.43;1.00;;;8.50;99.90;;;;;;4975343;28;20110;-76
2022/09/28 00:13:00;;;;;;;1.47;0.80;;;8.40;99.90;;;;;;4975278;28;20368;-76
2022/09/28 00:15:26;;;;;;;3.90;1.00;;;8.50;99.90;;;;;;4975334;28;20072;-76
2022/09/28 00:17:51;;;;;;;2.80;0.80;;;8.50;99.90;;;;;;4974877;28;20329;-76
2022/09/28 00:20:18;;;;;;;2.57;1.03;;;8.50;99.90;;;;;;4975096;28;20526;-76
2022/09/28 00:22:43;;;;;;;2.50;0.80;;;8.50;99.90;;;;;;4974891;28;20538;-76
2022/09/28 00:25:09;;;;;;;1.60;0.90;;;8.50;99.90;;;;;;4974943;28;20022;-76
2022/09/28 00:27:35;;;;;;;4.67;0.90;;;8.50;99.90;;;;;;4974970;28;20023;-76
2022/09/28 00:30:00;;;;;;;1.40;0.83;;;8.50;99.90;;;;;;4974887;28;20046;-76
2022/09/28 00:32:26;;;;;;;1.27;0.80;;;8.50;99.90;;;;;;4981791;28;20039;-76
2022/09/28 00:34:52;;;;;;;1.90;0.80;;;8.50;99.90;;;;;;4989137;28;20039;-76
2022/09/28 00:37:18;;;;;;;2.30;0.90;;;8.50;99.90;;;;;;4994264;28;20018;-76
2022/09/28 00:39:44;;;;;;;1.80;0.90;;;8.50;99.90;;;;;;4994154;28;20475;-76
2022/09/28 00:42:19;;;;;;;1.60;0.90;;;8.50;99.90;;;;;;4994163;28;20038;-76
2022/09/28 00:44:46;;;;;;;;;;;8.50;99.90;;;;;;5013976;28;20037;-76
2022/09/28 00:47:36;;;;;;;2.33;0.90;;;8.50;99.90;;;;;;5013627;28;19940;-76
2022/09/28 00:50:11;;;;;;;1.43;0.80;;;8.50;99.90;;;;;;5013758;28;20471;-76
2022/09/28 00:52:40;;;;;;;2.00;1.27;;;8.50;99.90;;;;;;5013544;28;20030;-76
2022/09/28 00:55:10;;;;;;;1.47;0.80;;;8.50;99.90;;;;;;5013359;28;20018;-76
2022/09/28 00:57:38;;;;;;;1.07;0.83;;;8.50;99.90;;;;;;5013603;28;20033;-76
2022/09/28 01:00:05;;;;;;;1.00;0.80;;;8.50;99.90;;;;;;5013797;28;20463;-76
2022/09/28 01:02:30;;;;;;;1.07;0.60;;;8.50;99.90;;;;;;5013225;28;20030;-76
2022/09/28 01:04:58;;;;;;;0.67;0.67;;;8.40;99.90;;;;;;5013454;28;20029;-76
2022/09/28 01:07:23;;;;;;;2.37;1.07;;;8.40;99.90;;;;;;5013517;28;20026;-76
2022/09/28 01:09:50;;;;;;;0.77;0.60;;;8.40;99.90;;;;;;5013488;28;20092;-76
2022/09/28 01:12:15;;;;;;;1.40;0.83;;;8.40;99.90;;;;;;5013303;28;20053;-76
2022/09/28 01:14:43;;;;;;;2.87;0.90;;;8.30;99.90;;;;;;5013469;28;20072;-76
2022/09/28 01:17:24;;;;;;;1.33;0.90;;;8.40;99.90;;;;;;5011975;28;20058;-76
2022/09/28 01:19:54;;;;;;;1.43;0.80;;;8.30;99.90;;;;;;5011903;28;20467;-76
2022/09/28 01:22:41;;;;;;;1.40;0.80;;;8.30;99.90;;;;;;5013242;28;20018;-76
2022/09/28 01:25:24;;;;;;;1.47;0.90;;;8.30;99.90;;;;;;5013209;28;20030;-76
2022/09/28 01:27:58;;;;;;;2.43;0.90;;;8.40;99.90;;;;;;5013041;28;20092;-76
2022/09/28 01:30:24;;;;;;;1.40;0.80;;;8.40;99.90;;;;;;5013003;28;20049;-76
2022/09/28 01:33:20;;;;;;;1.83;0.80;;;8.40;99.90;;;;;;4988019;28;20034;-76
2022/09/28 01:35:58;;;;;;;1.90;0.80;;;8.40;99.90;;;;;;4976995;28;20039;-76
2022/09/28 01:38:26;;;;;;;1.87;0.80;;;8.40;99.90;;;;;;4973762;28;20026;-76
2022/09/28 01:40:52;;;;;;;2.00;0.77;;;8.40;99.90;;;;;;4973921;28;20392;-76
2022/09/28 01:43:27;;;;;;;4.43;1.27;;;8.40;99.90;;;;;;4973673;28;20031;-76
2022/09/28 01:45:54;;;;;;;1.07;0.90;;;8.40;99.90;;;;;;4973608;28;20031;-76
2022/09/28 01:48:36;;;;;;;4.37;0.80;;;8.40;99.90;;;;;;4973438;28;20345;-76
2022/09/28 01:51:09;;;;;;;2.90;1.47;;;8.40;99.90;;;;;;4973377;28;20058;-76
2022/09/28 01:53:41;;;;;;;2.67;1.37;;;8.30;99.90;;;;;;4973606;28;20050;-76
2022/09/28 01:56:20;;;;;;;1.70;0.80;;;8.30;99.90;;;;;;4973294;28;20037;-76
2022/09/28 01:59:07;;;;;;;2.43;0.90;;;8.40;99.90;;;;;;4973284;28;20464;-76
2022/09/28 02:01:47;;;;;;;1.97;0.90;;;8.30;99.90;;;;;;4974799;28;20027;-76
2022/09/28 02:04:18;;;;;;;1.10;0.80;;;8.40;99.90;;;;;;5010749;28;20031;-76
2022/09/28 02:06:52;;;;;;;1.80;0.80;;;8.30;99.90;;;;;;5011992;28;20026;-76
2022/09/28 02:09:31;;;;;;;2.67;0.87;;;8.30;99.90;;;;;;5012060;28;20053;-76
2022/09/28 02:12:01;;;;;;;3.93;1.00;;;8.40;99.90;;;;;;5012075;28;20046;-77
2022/09/28 02:14:28;;;;;;;4.73;0.90;;;8.40;99.90;;;;;;5011743;28;20022;-76
2022/09/28 02:16:55;;;;;;;2.27;0.90;;;8.40;99.90;;;;;;5011835;28;20049;-76
2022/09/28 02:19:26;;;;;;;1.03;0.70;;;8.30;99.90;;;;;;5012028;28;20033;-76
2022/09/28 02:22:00;;;;;;;1.87;0.77;;;8.30;99.90;;;;;;5011839;28;20026;-76
2022/09/28 02:24:55;;;;;;;3.30;1.20;;;8.30;99.90;;;;;;5012070;28;20479;-76
2022/09/28 02:27:27;;;;;;;1.73;0.90;;;8.30;99.90;;;;;;5011974;28;20045;-77
2022/09/28 02:29:52;;;;;;;1.43;0.70;;;8.20;99.90;;;;;;5011536;28;20041;-76
2022/09/28 02:32:19;;;;;;;2.10;0.93;;;8.20;99.90;;;;;;4996163;28;20035;-76
2022/09/28 02:34:45;;;;;;;2.47;1.10;;;8.20;99.90;;;;;;4985770;28;20027;-76
2022/09/28 02:37:11;;;;;;;1.63;0.70;;;8.20;99.90;;;;;;4992165;28;20172;-76
2022/09/28 02:39:36;;;;;;;4.17;0.90;;;8.20;99.90;;;;;;4992125;28;20026;-76
2022/09/28 02:42:20;;;;;;;1.70;0.93;;;8.10;99.90;;;;;;4992017;28;20030;-76
2022/09/28 02:44:56;;;;;;;2.23;1.00;;;8.10;99.90;;;;;;4991046;28;20041;-76
2022/09/28 02:47:30;;;;;;;3.53;1.00;;;8.10;99.90;;;;;;4992076;28;20018;-76
2022/09/28 02:50:34;;;;;;;2.90;0.90;;;8.00;99.90;;;;;;4992032;28;20019;-76
2022/09/28 02:53:24;;;;;;;2.70;1.00;;;8.10;99.90;;;;;;4992010;28;20022;-76
2022/09/28 02:56:17;;;;;;;5.87;1.03;;;8.00;99.90;;;;;;4991930;28;20097;-76
2022/09/28 02:58:55;;;;;;;1.40;0.80;;;8.00;99.90;;;;;;4992143;28;20068;-76
2022/09/28 03:01:29;;;;;;;4.00;1.00;;;8.00;99.90;;;;;;4991696;28;20040;-76
2022/09/28 03:04:07;;;;;;;3.22;1.10;;;8.00;99.90;;;;;;5006909;28;20427;-76
2022/09/28 03:06:38;;;;;;;4.60;1.00;;;8.00;99.90;;;;;;4991748;28;20038;-76
2022/09/28 03:09:17;;;;;;;6.33;1.10;;;8.00;99.90;;;;;;4991542;28;20037;-76
2022/09/28 03:11:46;;;;;;;3.53;0.90;;;8.00;99.90;;;;;;4991810;28;20081;-76
2022/09/28 03:14:13;;;;;;;3.97;1.10;;;8.00;99.90;;;;;;4991700;28;20081;-76
2022/09/28 03:16:45;;;;;;;5.33;1.00;;;8.00;99.90;;;;;;4991570;28;20027;-76
2022/09/28 03:19:15;;;;;;;2.60;1.00;;;8.00;99.90;;;;;;4991433;28;20420;-77
2022/09/28 03:21:40;;;;;;;2.37;1.13;;;8.00;99.90;;;;;;4991372;28;20065;-76
2022/09/28 03:24:09;;;;;;;1.63;0.90;;;7.90;99.90;;;;;;4991262;28;20050;-77
2022/09/28 03:26:38;;;;;;;2.23;0.97;;;7.90;99.90;;;;;;4990972;28;20033;-77
2022/09/28 03:29:04;;;;;;;2.40;1.00;;;7.90;99.90;;;;;;4990869;28;20045;-77
2022/09/28 03:31:29;;;;;;;2.20;1.00;;;7.90;99.90;;;;;;4989315;28;20436;-76
2022/09/28 03:33:55;;;;;;;3.77;1.10;;;7.90;99.90;;;;;;4978026;28;20305;-77
2022/09/28 03:36:21;;;;;;;3.80;1.00;;;7.90;99.90;;;;;;4990981;28;20450;-77
2022/09/28 03:38:46;;;;;;;5.43;1.00;;;7.90;99.90;;;;;;4990824;28;20053;-77
2022/09/28 03:41:12;;;;;;;6.67;1.10;;;7.90;99.90;;;;;;4993358;28;20030;-77
2022/09/28 03:43:38;;;;;;;2.00;0.90;;;7.90;99.90;;;;;;4995351;28;20027;-77
2022/09/28 03:46:03;;;;;;;9.37;1.40;;;7.90;99.90;;;;;;4995042;28;20085;-76
2022/09/28 03:48:32;;;;;;;4.60;1.17;;;7.90;99.90;;;;;;4995149;28;20033;-76
2022/09/28 03:51:00;;;;;;;1.80;1.00;;;7.90;99.90;;;;;;4995403;28;20074;-77
2022/09/28 03:53:28;;;;;;;1.13;0.83;;;7.90;99.90;;;;;;4995194;28;20114;-77
2022/09/28 03:55:54;;;;;;;2.90;1.10;;;7.90;99.90;;;;;;4995412;28;20498;-77
2022/09/28 03:58:20;;;;;;;3.30;1.40;;;7.90;99.90;;;;;;4995149;28;20031;-76
2022/09/28 04:00:46;;;;;;;4.47;1.10;;;8.00;99.90;;;;;;4995226;28;20058;-77
2022/09/28 04:03:12;;;;;;;1.67;1.00;;;8.00;99.90;;;;;;4995001;28;20388;-77
2022/09/28 04:05:37;;;;;;;4.50;1.10;;;8.00;99.90;;;;;;4995100;28;20030;-77
2022/09/28 04:08:03;;;;;;;2.20;1.03;;;8.00;99.90;;;;;;4995097;28;20038;-77
2022/09/28 04:10:29;;;;;;;1.87;1.07;;;8.00;99.90;;;;;;4995165;28;20031;-77
2022/09/28 04:12:56;;;;;;;3.73;1.20;;;8.00;99.90;;;;;;4995055;28;20053;-76
2022/09/28 04:15:23;;;;;;;3.00;0.97;;;8.10;99.90;;;;;;4994802;28;20433;-77
2022/09/28 04:17:49;;;;;;;2.57;0.80;;;8.00;99.90;;;;;;4994959;28;20045;-77
2022/09/28 04:20:15;;;;;;;3.03;0.90;;;8.00;99.90;;;;;;4994752;28;20022;-76
2022/09/28 04:22:40;;;;;;;1.27;1.13;;;8.10;99.90;;;;;;4994849;28;20030;-77
2022/09/28 04:25:06;;;;;;;1.00;0.80;;;8.10;99.90;;;;;;4994964;28;20448;-77
2022/09/28 04:30:16;;;;;;;3.33;0.97;;;8.10;99.90;;;;;;4994567;28;20056;-76
2022/09/28 04:32:41;;;;;;;1.67;1.10;;;8.10;99.90;;;;;;4988736;28;20406;-77
2022/09/28 04:35:10;;;;;;;2.30;1.20;;;8.10;99.90;;;;;;4991130;28;20078;-75
2022/09/28 04:37:36;;;;;;;1.30;1.00;;;8.10;99.90;;;;;;4994752;28;20036;-75
2022/09/28 04:40:02;;;;;;;1.47;0.90;;;8.10;99.90;;;;;;4994564;28;20118;-75
2022/09/28 04:42:27;;;;;;;2.57;0.80;;;8.20;99.90;;;;;;4994292;28;20522;-75
2022/09/28 04:44:53;;;;;;;3.53;1.00;;;8.30;99.90;;;;;;4994526;28;20027;-75
2022/09/28 04:47:18;;;;;;;2.37;0.90;;;8.30;99.90;;;;;;4994570;28;20022;-75
2022/09/28 04:49:44;;;;;;;1.97;0.80;;;8.30;99.90;;;;;;4994472;28;20026;-75
2022/09/28 04:52:09;;;;;;;1.00;0.80;;;8.30;99.90;;;;;;4994196;28;20046;-76
2022/09/28 04:54:35;;;;;;;1.00;0.80;;;8.30;99.90;;;;;;4994481;28;20033;-75
2022/09/28 04:57:02;;;;;;;1.87;0.90;;;8.30;99.90;;;;;;4992957;28;20030;-75
2022/09/28 04:59:27;;;;;;;1.43;0.80;;;8.30;99.90;;;;;;4992799;28;20054;-75
2022/09/28 05:01:53;;;;;;;1.50;1.00;;;8.30;99.90;;;;;;4993916;28;20076;-76
2022/09/28 05:04:19;;;;;;;2.00;0.90;;;8.30;99.90;;;;;;4994054;28;20026;-76
2022/09/28 05:06:44;;;;;;;1.30;0.80;;;8.30;99.90;;;;;;4994221;28;20026;-76
2022/09/28 05:09:10;;;;;;;1.77;1.00;;;8.30;99.90;;;;;;5008810;28;20455;-74
2022/09/28 05:11:35;;;;;;;1.83;0.90;;;8.30;99.90;;;;;;4976233;28;20042;-77
2022/09/28 05:14:01;;;;;;;1.47;0.90;;;8.30;99.90;;;;;;4985450;28;20038;-76
2022/09/28 05:16:27;;;;;;;1.10;0.90;;;8.40;99.90;;;;;;4994040;28;20531;-76
2022/09/28 05:18:56;;;;;;;1.90;1.00;;;8.40;99.90;;;;;;4993851;28;20072;-77
2022/09/28 05:21:24;;;;;;;1.43;0.80;;;8.40;99.90;;;;;;4993715;28;20475;-77
2022/09/28 05:23:49;;;;;;;3.10;0.87;;;8.30;99.90;;;;;;4993751;28;20018;-76
2022/09/28 05:26:15;;;;;;;1.87;0.90;;;8.30;99.90;;;;;;4993338;28;20025;-76
2022/09/28 05:28:41;;;;;;;2.50;0.80;;;8.30;99.90;;;;;;4993508;28;20068;-74
2022/09/28 05:31:07;;;;;;;1.50;0.97;;;8.40;99.90;;;;;;4994497;28;20121;-75
2022/09/28 05:33:32;;;;;;;1.10;1.00;;;8.40;99.90;;;;;;4976090;28;20105;-74
2022/09/28 05:35:59;;;;;;;3.00;1.17;;;8.50;99.90;;;;;;4974577;28;20058;-76
2022/09/28 05:38:24;;;;;;;2.03;1.03;;;8.50;99.90;;;;;;4974117;28;20502;-76
2022/09/28 05:40:50;;;;;;;1.57;0.80;;;8.50;99.90;;;;;;4974024;28;20034;-76
2022/09/28 05:43:16;;;;;;;1.07;0.80;;;8.50;99.90;;;;;;4973970;28;20031;-76
2022/09/28 05:45:41;;;;;;;2.60;0.80;;;8.50;99.90;;;;;;4974091;28;20460;-77
2022/09/28 05:48:07;;;;;;;1.57;1.10;;;8.50;99.90;;;;;;4973899;28;20031;-76
2022/09/28 05:50:33;;;;;;;3.40;0.97;;;8.60;99.90;;;;;;4974130;28;20030;-76
2022/09/28 05:53:07;;;;;;;2.43;0.90;;;8.50;99.90;;;;;;4973530;28;20033;-76
2022/09/28 05:55:33;;;;;;;2.00;0.80;;;8.50;99.90;;;;;;4973876;28;20034;-76
2022/09/28 05:58:00;;;;;;;4.90;1.00;;;8.50;99.90;;;;;;4973749;28;20026;-75
2022/09/28 06:00:30;;;;;;;1.57;0.73;;;8.50;99.90;;;;;;4973329;28;20026;-75
2022/09/28 06:02:57;;;;;;;1.90;0.70;;;8.60;99.90;;;;;;4989860;28;20026;-76
2022/09/28 06:05:24;;;;;;;1.43;0.90;;;8.60;99.90;;;;;;5000021;28;20029;-77
2022/09/28 06:07:49;;;;;;;1.60;0.93;;;8.60;99.90;;;;;;4995884;28;20084;-77
2022/09/28 06:10:15;;;;;;;1.67;0.70;;;8.60;99.90;;;;;;4998029;28;20030;-77
2022/09/28 06:12:41;;;;;;;1.53;0.93;;;8.60;99.90;;;;;;4992561;28;20026;-77
2022/09/28 06:15:07;;;;;;;3.33;1.13;;;8.60;99.90;;;;;;4997753;28;20027;-77
2022/09/28 06:17:32;;;;;;;2.50;1.10;;;8.70;99.90;;;;;;4996557;28;20027;-76
2022/09/28 06:19:58;;;;;;;2.83;1.00;;;8.70;99.90;;;;;;4999831;28;20032;-76
2022/09/28 06:22:23;;;;;;;1.53;0.90;;;8.60;99.90;;;;;;4995355;28;20862;-77
2022/09/28 06:24:49;;;;;;;1.73;0.87;;;8.70;99.90;;;;;;4997569;28;20042;-76
2022/09/28 06:27:14;;;;;;;1.27;0.90;;;8.60;99.90;;;;;;4993330;28;20035;-75
2022/09/28 06:29:40;;;;;;;2.50;1.07;;;8.60;99.90;;;;;;4992217;28;20122;-75
2022/09/28 06:32:06;;;;;;;1.50;0.80;;;8.60;99.90;;;;;;4990110;28;20042;-76
2022/09/28 06:34:33;;;;;;;1.57;0.70;;;8.60;99.90;;;;;;4990543;28;20169;-75
2022/09/28 06:36:59;;;;;;;3.90;1.00;;;8.50;99.90;;;;;;4998071;28;20037;-75
2022/09/28 06:39:24;;;;;;;4.53;0.87;;;8.60;99.90;;;;;;4995780;28;20034;-75
2022/09/28 06:41:50;;;;;;;1.97;0.80;;;8.60;99.90;;;;;;4992136;28;20030;-75
2022/09/28 06:44:15;;;;;;;3.60;1.20;;;8.70;99.90;;;;;;4991524;28;20034;-75
2022/09/28 06:46:41;;;;;;;4.33;2.10;;;8.70;99.90;;;;;;4994447;28;20053;-76
2022/09/28 06:49:08;;;;;;;1.97;0.87;;;8.70;99.90;;;;;;4994949;28;20072;-75
2022/09/28 06:51:35;;;;;;;3.37;1.00;;;8.70;99.90;;;;;;4995481;28;20045;-75
2022/09/28 06:54:01;;;;;;;0.80;0.77;;;8.70;99.90;;;;;;4994384;28;20033;-75
2022/09/28 06:56:27;;;;;;;1.67;0.90;;;8.80;99.90;;;;;;4997237;28;20553;-75
2022/09/28 06:58:52;;;;;;;1.53;0.77;;;8.80;99.90;;;;;;5001167;28;20042;-76
2022/09/28 07:01:18;;;;;;;0.73;0.73;;;8.80;99.90;;;;;;4996366;28;21358;-75
2022/09/28 07:03:43;;;;;;;1.73;0.90;;;8.90;99.90;;;;;;4997780;28;20149;-75
2022/09/28 07:06:11;;;;;;;2.50;0.70;;;8.90;99.90;;;;;;4992046;28;20058;-75
2022/09/28 07:08:36;;;;;;;1.00;0.70;;;8.90;99.90;;;;;;4993008;28;20101;-81
2022/09/28 07:11:05;;;;;;;0.60;0.60;;;8.90;99.90;;;;;;4989527;28;20129;-78
2022/09/28 07:13:31;;;;;;;1.63;0.87;;;9.00;99.90;;;;;;4989464;28;20061;-78
2022/09/28 07:16:00;;;;;;;0.80;0.80;;;9.00;99.90;;;;;;4988750;28;20499;-78
2022/09/28 07:18:27;;;;;;;1.20;0.70;;;9.10;99.90;;;;;;4992278;28;20034;-78
2022/09/28 07:20:56;;;;;;;3.13;0.90;;;9.10;99.90;;;;;;4989768;28;20102;-78
2022/09/28 07:23:22;;;;;;;4.17;0.80;;;9.20;99.90;;;;;;4993264;28;20034;-80
2022/09/28 07:25:49;;;;;;;2.50;0.83;;;9.20;99.90;;;;;;4992234;28;20175;-79
2022/09/28 07:28:16;;;;;;;1.83;0.80;;;9.20;99.90;;;;;;4993324;28;20022;-79
2022/09/28 07:30:43;;;;;;;1.63;0.80;;;9.20;99.90;;;;;;4991116;28;21326;-79
2022/09/28 07:33:11;;;;;;;4.00;0.80;;;9.20;99.90;;;;;;4990664;28;20764;-79
2022/09/28 07:35:37;;;;;;;0.60;0.60;;;9.20;99.90;;;;;;4994395;28;20022;-79
2022/09/28 07:38:04;;;;;;;0.77;0.60;;;9.20;99.90;;;;;;4994191;28;20045;-79
2022/09/28 07:43:19;;;;;;;1.73;0.67;;;9.30;99.90;;;;;;4996136;28;20041;-79
2022/09/28 07:45:47;;;;;;;1.87;0.70;;;9.30;99.90;;;;;;4992495;28;20036;-80
2022/09/28 07:48:16;;;;;;;1.67;0.60;;;9.40;99.90;;;;;;4991728;28;20037;-80
2022/09/28 07:50:53;;;;;;;0.63;0.57;;;9.40;99.90;;;;;;4993745;28;20529;-78
2022/09/28 07:53:20;;;;;;;1.23;0.63;;;9.40;99.90;;;;;;4992954;28;20073;-78
2022/09/28 07:55:53;;;;;;;0.80;0.67;;;9.40;99.90;;;;;;4995760;28;20086;-78
2022/09/28 07:58:19;;;;;;;0.70;0.50;;;9.40;99.90;;;;;;4990277;28;20079;-78
2022/09/28 08:00:48;;;;;;;1.80;0.60;;;9.50;99.90;;;;;;4993162;28;20066;-78
2022/09/28 08:03:15;;;;;;;0.50;0.50;;;9.40;99.90;;;;;;4994630;28;20885;-80
2022/09/28 08:05:41;;;;;;;0.40;0.40;;;9.60;99.90;;;;;;4993439;28;20146;-78
2022/09/28 08:08:08;;;;;;;2.20;0.70;;;9.60;99.90;;;;;;4992719;28;20105;-78
2022/09/28 08:10:35;;;;;;;1.17;0.70;;;9.60;99.90;;;;;;4992675;28;20046;-78
2022/09/28 08:13:03;;;;;;;0.87;0.57;;;9.70;99.90;;;;;;4995420;28;20030;-78
2022/09/28 08:15:35;;;;;;;1.57;0.80;;;9.70;99.90;;;;;;4996922;28;20033;-78
2022/09/28 08:18:02;;;;;;;0.70;0.70;;;9.70;99.90;;;;;;4993694;28;20027;-77
2022/09/28 08:23:13;;;;;;;0.90;0.50;;;9.70;99.90;;;;;;4995354;28;20402;-77
2022/09/28 08:25:38;;;;;;;0.50;0.50;;;9.70;99.90;;;;;;4993124;28;20018;-79
2022/09/28 08:28:06;;;;;;;0.87;0.60;;;9.70;99.90;;;;;;4997530;28;20121;-79
2022/09/28 08:30:32;;;;;;;1.73;0.63;;;9.80;99.90;;;;;;4996021;28;20786;-80
2022/09/28 08:32:58;;;;;;;0.93;0.70;;;9.80;99.90;;;;;;4992683;28;20023;-79
2022/09/28 08:35:24;;;;;;;0.90;0.70;;;9.80;99.90;;;;;;4998272;28;20037;-78
2022/09/28 08:37:53;;;;;;;1.77;0.50;;;9.90;99.90;;;;;;4993908;28;20034;-77
2022/09/28 08:40:24;;;;;;;1.43;0.80;;;9.80;99.90;;;;;;5002401;28;20037;-78
2022/09/28 08:42:56;;;;;;;1.47;0.80;;;9.80;99.90;;;;;;4998629;28;20040;-78
2022/09/28 08:45:27;;;;;;;5.93;0.77;;;9.80;99.90;;;;;;4998149;28;20149;-77
2022/09/28 08:51:30;;;;;;;0.93;0.70;;;9.90;99.90;;;;;;4999468;28;20135;-77
2022/09/28 08:54:11;;;;;;;0.60;0.60;;;9.90;99.90;;;;;;4981198;28;20430;-79
2022/09/28 08:56:46;;;;;;;1.63;0.80;;;9.90;99.90;;;;;;4996469;28;20379;-79
2022/09/28 08:59:22;;;;;;;2.30;0.90;;;9.80;99.90;;;;;;4997722;28;20105;-81
2022/09/28 09:01:57;;;;;;;1.30;0.70;;;9.60;99.90;;;;;;4998101;28;20037;-81
2022/09/28 09:04:23;;;;;;;1.27;0.73;;;9.30;99.90;;;;;;4997910;28;20031;-80
2022/09/28 09:06:57;;;;;;;2.57;0.90;;;9.20;99.90;;;;;;4995599;28;21319;-81
2022/09/28 09:09:32;;;;;;;1.17;0.90;;;9.00;99.90;;;;;;4995933;28;20026;-81
2022/09/28 09:12:31;;;;;;;1.63;0.87;;;8.90;99.90;;;;;;4993618;28;20026;-81
2022/09/28 09:14:57;;;;;;;1.40;0.80;;;8.80;99.90;;;;;;4977905;28;20419;-81
2022/09/28 09:18:02;;;;;;;2.50;0.90;;;8.70;99.90;;;;;;4997013;28;20034;-81
2022/09/28 09:20:47;;;;;;;1.57;0.90;;;8.70;99.90;;;;;;4960435;28;20149;-81
2022/09/28 09:23:35;;;;;;;2.30;1.10;;;8.70;99.90;;;;;;4951517;28;20082;-81
2022/09/28 09:26:17;;;;;;;2.10;0.97;;;8.80;99.90;;;;;;4983424;28;20040;-81
2022/09/28 09:29:15;;;;;;;2.57;0.93;;;8.80;99.90;;;;;;4991073;28;20493;-80
2022/09/28 09:31:43;;;;;;;2.50;1.10;;;8.90;99.90;;;;;;4985440;28;20031;-77
2022/09/28 09:34:31;;;;;;;1.87;1.10;;;8.90;99.90;;;;;;4989615;28;20030;-78
2022/09/28 09:37:03;;;;;;;2.07;0.90;;;9.00;99.90;;;;;;4993081;28;20069;-77
2022/09/28 09:39:55;;;;;;;1.53;1.03;;;9.00;99.90;;;;;;4992739;28;20026;-78
2022/09/28 09:42:29;;;;;;;2.00;0.93;;;9.10;99.90;;;;;;4993149;28;20451;-77
2022/09/28 09:45:06;;;;;;;2.33;1.10;;;9.10;99.90;;;;;;4993326;28;20537;-78
2022/09/28 09:47:38;;;;;;;1.10;0.80;;;9.20;99.90;;;;;;4975154;28;20022;-78
2022/09/28 09:50:38;;;;;;;2.03;0.90;;;9.20;99.90;;;;;;4990385;28;20034;-77
2022/09/28 09:53:26;;;;;;;2.37;0.80;;;9.20;99.90;;;;;;4989329;28;20222;-77
2022/09/28 09:55:57;;;;;;;4.40;1.13;;;9.20;99.90;;;;;;4992951;28;20026;-77
2022/09/28 09:58:30;;;;;;;2.17;1.10;;;9.20;99.90;;;;;;4992995;28;20033;-77
2022/09/28 10:01:04;;;;;;;1.53;1.07;;;9.10;99.90;;;;;;4992461;28;20467;-77
2022/09/28 10:03:33;;;;;;;2.38;0.90;;;9.10;99.90;;;;;;4991491;28;20579;-77
2022/09/28 10:06:10;;;;;;;1.97;0.90;;;9.10;99.90;;;;;;4992834;28;20026;-77
2022/09/28 10:08:44;;;;;;;2.53;1.10;;;9.20;99.90;;;;;;4992704;28;20105;-77
2022/09/28 10:11:26;;;;;;;1.52;1.00;;;9.20;99.90;;;;;;4991263;28;20468;-77
2022/09/28 10:13:51;;;;;;;1.90;0.90;;;9.30;99.90;;;;;;4992487;28;20049;-76
2022/09/28 10:16:18;;;;;;;2.33;1.13;;;9.40;99.90;;;;;;4986892;28;20023;-72
2022/09/28 10:18:43;;;;;;;2.60;0.83;;;9.50;99.90;;;;;;4981844;28;20419;-77
2022/09/28 10:21:18;;;;;;;2.13;1.03;;;9.50;99.90;;;;;;4984480;28;20031;-77
2022/09/28 10:23:45;;;;;;;;;;;9.60;99.90;;;;;;4980528;28;20023;-80
2022/09/28 10:26:26;;;;;;;1.60;1.00;;;9.70;99.90;;;;;;4979869;28;19906;-80
2022/09/28 10:28:59;;;;;;;2.37;1.13;;;9.70;99.90;;;;;;4985232;28;20034;-80
2022/09/28 10:31:40;;;;;;;2.23;1.10;;;9.70;99.90;;;;;;4997520;28;20026;-80
2022/09/28 10:34:09;;;;;;;2.53;1.20;;;9.70;99.90;;;;;;4995791;28;20042;-80
2022/09/28 10:36:51;;;;;;;2.10;0.90;;;9.80;99.90;;;;;;4995982;28;20564;-80
2022/09/28 10:39:33;;;;;;;1.87;1.07;;;9.90;99.90;;;;;;4989961;28;20110;-80
2022/09/28 10:42:04;;;;;;;2.43;1.10;;;9.90;99.90;;;;;;4994880;28;20411;-80
2022/09/28 10:44:33;;;;;;;2.63;1.10;;;9.90;99.90;;;;;;4996042;28;20026;-80
2022/09/28 10:47:01;;;;;;;1.40;1.00;;;10.00;99.90;;;;;;4998468;28;20050;-81
2022/09/28 10:49:37;;;;;;;1.30;0.97;;;10.00;99.90;;;;;;4990527;28;20018;-82
2022/09/28 10:52:04;;;;;;;1.38;1.23;;;10.10;99.90;;;;;;4988528;28;20149;-81
2022/09/28 10:54:31;;;;;;;1.85;1.10;;;10.10;99.90;;;;;;4989563;28;20642;-81
2022/09/28 10:56:58;;;;;;;2.45;1.30;;;10.10;99.90;;;;;;4990742;28;20050;-82
2022/09/28 10:59:33;;;;;;;2.47;1.02;;;10.20;99.90;;;;;;4993262;28;20034;-81
2022/09/28 11:02:17;;;;;;;2.67;1.13;;;10.20;99.90;;;;;;4999216;28;20034;-81
2022/09/28 11:04:53;;;;;;;3.53;1.30;;;10.30;99.90;;;;;;5000886;28;20030;-81
2022/09/28 11:07:23;;;;;;;1.45;0.90;;;10.40;99.90;;;;;;4989247;28;20471;-81
2022/09/28 11:09:50;;;;;;;1.42;0.90;;;10.60;99.90;;;;;;4987495;28;20158;-81
2022/09/28 11:12:19;;;;;;;2.25;1.30;;;10.60;99.90;;;;;;4988499;28;20026;-81
2022/09/28 11:14:47;;;;;;;2.63;1.00;;;10.50;99.90;;;;;;4997366;28;20033;-81
2022/09/28 11:17:17;;;;;;;1.63;1.10;;;10.60;99.90;;;;;;4988752;28;20096;-81
2022/09/28 11:19:43;;;;;;;2.10;1.05;;;10.60;99.90;;;;;;4989590;28;20030;-81
2022/09/28 11:22:27;;;;;;;4.22;2.20;;;10.50;99.90;;;;;;4989876;28;20026;-80
2022/09/28 11:25:23;;;;;;;8.07;3.33;;;10.60;99.90;;;;;;4990001;28;20049;-77
2022/09/28 11:27:51;;;;;;;3.45;1.70;;;10.60;99.90;;;;;;4988552;28;20049;-77
2022/09/28 11:30:28;;;;;;;2.40;1.33;;;10.60;99.90;;;;;;4993621;28;20551;-77
2022/09/28 11:33:01;;;;;;;3.85;1.60;;;10.60;99.90;;;;;;4991593;28;20061;-77
2022/09/28 11:36:03;;;;;;;3.03;1.23;;;10.70;99.90;;;;;;4992657;28;20065;-77
2022/09/28 11:38:32;;;;;;;3.30;1.65;;;10.60;99.90;;;;;;4996344;28;20040;-77
2022/09/28 11:41:24;;;;;;;4.00;2.00;;;10.60;99.90;;;;;;4997419;28;20030;-77
2022/09/28 11:44:16;;;;;;;3.67;1.50;;;10.70;99.90;;;;;;5008323;28;20029;-77
2022/09/28 11:47:02;;;;;;;2.42;1.42;;;10.70;99.90;;;;;;5010364;28;20026;-72
2022/09/28 11:49:27;;;;;;;;;;;10.80;99.90;;;;;;5012059;28;20032;-77
2022/09/28 11:52:00;;;;;;;2.55;1.30;;;10.70;99.90;;;;;;5011351;28;19913;-77
2022/09/28 11:54:38;;;;;;;2.28;1.23;;;10.70;99.90;;;;;;5010195;28;20026;-77
2022/09/28 11:57:05;;;;;;;3.33;1.20;;;10.70;99.90;;;;;;5011680;28;20034;-77
2022/09/28 11:59:37;;;;;;;2.88;1.50;;;10.60;99.90;;;;;;5011251;28;20041;-78
2022/09/28 12:02:29;;;;;;;3.55;1.40;;;10.50;99.90;;;;;;5013123;28;20533;-78
2022/09/28 12:04:57;;;;;;;3.60;1.63;;;10.40;99.90;;;;;;5015014;28;20049;-77
2022/09/28 12:07:29;;;;;;;3.67;2.17;;;10.40;99.90;;;;;;5014756;28;20033;-77
2022/09/28 12:10:10;;;;;;;3.38;1.50;;;10.40;99.90;;;;;;5015063;28;20105;-77
2022/09/28 12:13:24;;;;;;;4.15;1.38;;;10.30;99.90;;;;;;5013575;28;20030;-77
2022/09/28 12:16:30;;;;;;;4.07;1.50;;;10.30;99.90;;;;;;5006340;28;20487;-77
2022/09/28 12:19:06;;;;;;;6.55;2.03;;;10.30;99.90;;;;;;5015003;28;20036;-77
2022/09/28 12:21:42;;;;;;;2.80;1.42;;;10.30;99.90;;;;;;5015171;28;20092;-77
2022/09/28 12:24:20;;;;;;;4.05;1.77;;;10.20;99.90;;;;;;5014809;28;20030;-77
2022/09/28 12:27:05;;;;;;;3.20;1.80;;;10.20;99.90;;;;;;5014680;28;20529;-77
2022/09/28 12:29:43;;;;;;;4.87;2.13;;;10.20;99.90;;;;;;5014632;28;20096;-77
2022/09/28 12:32:37;;;;;;;4.05;1.80;;;10.20;99.90;;;;;;4998183;28;20478;-77
2022/09/28 12:35:14;;;;;;;6.32;1.85;;;10.20;99.90;;;;;;4987085;28;20080;-77
2022/09/28 12:37:49;;;;;;;3.30;1.55;;;10.20;99.90;;;;;;4995031;28;20038;-77
2022/09/28 12:40:26;;;;;;;;;;;10.10;99.90;;;;;;4995539;28;20033;-77
2022/09/28 12:43:20;;;;;;;1.93;1.30;;;10.10;99.90;;;;;;4994969;28;19913;-77
2022/09/28 12:45:49;;;;;;;3.25;1.60;;;10.00;99.90;;;;;;4994564;28;20069;-78
2022/09/28 12:48:43;;;;;;;3.25;1.85;;;9.90;99.90;;;;;;4994689;28;20415;-78
2022/09/28 12:51:33;;;;;;;2.20;1.27;;;9.90;99.90;;;;;;4993586;28;20022;-77
2022/09/28 12:54:33;;;;;;;4.17;1.67;;;9.80;99.90;;;;;;4994592;28;20033;-77
2022/09/28 12:57:36;;;;;;;3.20;1.50;;;9.80;99.90;;;;;;4986675;28;20023;-77
2022/09/28 13:00:16;;;;;;;5.23;1.30;;;9.70;99.90;;;;;;4975105;28;20094;-77
2022/09/28 13:02:41;;;;;;;3.27;1.37;;;9.60;99.90;;;;;;4974997;28;20035;-77
2022/09/28 13:05:22;;;;;;;4.57;1.80;;;9.50;99.90;;;;;;4974821;28;20040;-77
2022/09/28 13:08:21;;;;;;;3.77;1.97;;;9.50;99.90;;;;;;4974884;28;20034;-77
2022/09/28 13:11:11;;;;;;;4.57;1.70;;;9.60;99.90;;;;;;4974690;28;20552;-77
2022/09/28 13:13:52;;;;;;;3.97;1.90;;;9.50;99.90;;;;;;4973486;28;20097;-77
2022/09/28 13:16:49;;;;;;;4.77;1.90;;;9.50;99.90;;;;;;4974902;28;20019;-77
2022/09/28 13:19:17;;;;;;;3.57;1.80;;;9.50;99.90;;;;;;4973402;28;20086;-77
2022/09/28 13:22:02;;;;;;;3.97;1.80;;;9.50;99.90;;;;;;4974491;28;20038;-77
2022/09/28 13:24:32;;;;;;;2.50;1.60;;;9.50;99.90;;;;;;4974653;28;20495;-77
2022/09/28 13:27:04;;;;;;;3.00;1.50;;;9.50;99.90;;;;;;4974739;28;20058;-77
2022/09/28 13:29:33;;;;;;;3.97;1.90;;;9.50;99.90;;;;;;4974398;28;20447;-77
2022/09/28 13:31:59;;;;;;;3.47;2.00;;;9.60;99.90;;;;;;4981218;28;20030;-77
2022/09/28 13:34:28;;;;;;;3.37;1.83;;;9.60;99.90;;;;;;4985383;28;20105;-77